Adin, CA (96006)

8:23 PM PDT on August 31, 2015 (GMT -0700)
KCAMCART2 | | Change Station
CLOSE
Current Station
Personal Weather Station
Location: Lookout, CA
Elevation: 4265 ft
Nearby Weather Stations

Elev 4265 ft 41.23 °N, 121.22 °W | Updated 5 seconds ago

Clear
Clear
67.7 °F
Feels Like 67.7 °F
N
0.4
Wind Variable Wind from WSW
Gusts 0.9 mph

Today
High -- | Low -- °F
--% Chance of Precip.
Yesterday
High -- | Low -- °F
Precip. -- in
6:29 AM 7:38 PM
Waning Gibbous, 92% visible
Pressure 29.88 in
Visibility 10.0 miles
Clouds Clear
Dew Point 32 °F
Humidity 27%
Rainfall 0.00 in
Snow Depth Not available.
UV 0 out of 12
Pollen 8.70 out of 12
Air Quality Not available.
Flu Activity Not available.
METAR KAAT 010255Z AUTO 33008KT 10SM CLR 23/03 A2997 RMK AO2 SLP119 T02280033 53001
Pressure 29.88 in
Visibility 10.0 miles
Clouds Clear
Dew Point 32 °F
Humidity 27%
Rainfall 0.00 in
Snow Depth Not available.
UV 0 out of 12
Pollen 8.70 out of 12
Air Quality Not available.
Flu Activity Not available.
METAR KAAT 010255Z AUTO 33008KT 10SM CLR 23/03 A2997 RMK AO2 SLP119 T02280033 53001

10-Day Weather Forecast

×

Almanac

Astronomy

Aug. 31, 2015 Rise Set
Actual Time
Civil Twilight
Nautical Twilight
Astronomical Twilight
Moon
Length of Visible Light
Length of Day
Tomorrow will be .
, % of the Moon is Illuminated

Today's Extremes

State Highs State Lows

Community

WunderPhotos

Upload Photos

1,851,474 photos uploaded!

WunderBlogs® & News

Nearby

Air Quality

  Air Quality AQ Index Pollutant
Not available.

Snow Depth

Station Depth Elevation

Earthquake Activity

City Distance Mag. Time & Date
Minimum magnitude displayed is 2.5.

Coastal Water Temperatures

Place Temperature

Stations

Nearby Weather Stations

Station Location Temp. Windchill Dew Point Humidity Wind Precip. Elev Updated Type